sensor_id;sensor_type;location;lat;lon;timestamp;temperature;humidity
24638;DHT22;12773;50.162;8.548;2022-08-03T00:02:31;20.10;99.90
24638;DHT22;12773;50.162;8.548;2022-08-03T00:05:19;20.10;99.90
24638;DHT22;12773;50.162;8.548;2022-08-03T00:08:06;20.10;99.90
24638;DHT22;12773;50.162;8.548;2022-08-03T00:10:54;20.10;99.90
24638;DHT22;12773;50.162;8.548;2022-08-03T00:13:41;20.10;99.90
24638;DHT22;12773;50.162;8.548;2022-08-03T00:16:28;20.10;99.90
24638;DHT22;12773;50.162;8.548;2022-08-03T00:19:16;20.10;99.90
24638;DHT22;12773;50.162;8.548;2022-08-03T00:22:03;20.20;99.90
24638;DHT22;12773;50.162;8.548;2022-08-03T00:24:51;20.20;99.90
24638;DHT22;12773;50.162;8.548;2022-08-03T00:27:38;20.10;99.90
24638;DHT22;12773;50.162;8.548;2022-08-03T00:30:25;20.20;99.90
24638;DHT22;12773;50.162;8.548;2022-08-03T00:33:15;20.10;99.90
24638;DHT22;12773;50.162;8.548;2022-08-03T00:36:02;20.00;99.90
24638;DHT22;12773;50.162;8.548;2022-08-03T00:38:49;20.00;99.90
24638;DHT22;12773;50.162;8.548;2022-08-03T00:41:37;20.00;99.90
24638;DHT22;12773;50.162;8.548;2022-08-03T00:44:24;20.00;99.90
24638;DHT22;12773;50.162;8.548;2022-08-03T00:47:12;19.90;99.90
24638;DHT22;12773;50.162;8.548;2022-08-03T00:49:59;19.70;99.90
24638;DHT22;12773;50.162;8.548;2022-08-03T00:52:47;19.60;99.90
24638;DHT22;12773;50.162;8.548;2022-08-03T00:55:36;19.70;99.90
24638;DHT22;12773;50.162;8.548;2022-08-03T00:58:23;19.80;99.90
24638;DHT22;12773;50.162;8.548;2022-08-03T01:01:10;19.80;99.90
24638;DHT22;12773;50.162;8.548;2022-08-03T01:03:58;19.90;99.90
24638;DHT22;12773;50.162;8.548;2022-08-03T01:09:57;19.70;99.90
24638;DHT22;12773;50.162;8.548;2022-08-03T01:31:56;19.00;99.90
24638;DHT22;12773;50.162;8.548;2022-08-03T01:34:58;19.10;99.90
24638;DHT22;12773;50.162;8.548;2022-08-03T01:37:53;19.20;99.90
24638;DHT22;12773;50.162;8.548;2022-08-03T01:40:40;19.30;99.90
24638;DHT22;12773;50.162;8.548;2022-08-03T01:43:29;19.30;99.90
24638;DHT22;12773;50.162;8.548;2022-08-03T01:46:19;19.20;99.90
24638;DHT22;12773;50.162;8.548;2022-08-03T01:49:09;19.20;99.90
24638;DHT22;12773;50.162;8.548;2022-08-03T01:51:58;19.20;99.90
24638;DHT22;12773;50.162;8.548;2022-08-03T01:54:50;19.20;99.90
24638;DHT22;12773;50.162;8.548;2022-08-03T01:57:39;19.20;99.90
24638;DHT22;12773;50.162;8.548;2022-08-03T02:00:31;19.10;99.90
24638;DHT22;12773;50.162;8.548;2022-08-03T02:03:20;19.10;99.90
24638;DHT22;12773;50.162;8.548;2022-08-03T02:06:10;19.10;99.90
24638;DHT22;12773;50.162;8.548;2022-08-03T02:09:00;19.00;99.90
24638;DHT22;12773;50.162;8.548;2022-08-03T02:11:50;19.00;99.90
24638;DHT22;12773;50.162;8.548;2022-08-03T02:14:40;19.00;99.90
24638;DHT22;12773;50.162;8.548;2022-08-03T02:17:29;19.00;99.90
24638;DHT22;12773;50.162;8.548;2022-08-03T02:20:18;18.90;99.90
24638;DHT22;12773;50.162;8.548;2022-08-03T02:23:06;18.90;99.90
24638;DHT22;12773;50.162;8.548;2022-08-03T02:25:57;18.90;99.90
24638;DHT22;12773;50.162;8.548;2022-08-03T02:28:56;18.90;99.90
24638;DHT22;12773;50.162;8.548;2022-08-03T02:31:46;19.00;99.90
24638;DHT22;12773;50.162;8.548;2022-08-03T02:34:35;19.00;99.90
24638;DHT22;12773;50.162;8.548;2022-08-03T02:37:26;18.90;99.90
24638;DHT22;12773;50.162;8.548;2022-08-03T02:40:14;18.90;99.90
24638;DHT22;12773;50.162;8.548;2022-08-03T02:43:06;18.80;99.90
24638;DHT22;12773;50.162;8.548;2022-08-03T02:45:53;18.80;99.90
24638;DHT22;12773;50.162;8.548;2022-08-03T02:48:42;18.80;99.90
24638;DHT22;12773;50.162;8.548;2022-08-03T02:51:34;18.80;99.90
24638;DHT22;12773;50.162;8.548;2022-08-03T02:54:24;18.80;99.90
24638;DHT22;12773;50.162;8.548;2022-08-03T02:57:14;18.80;99.90
24638;DHT22;12773;50.162;8.548;2022-08-03T03:00:06;18.60;99.90
24638;DHT22;12773;50.162;8.548;2022-08-03T03:02:59;18.50;99.90
24638;DHT22;12773;50.162;8.548;2022-08-03T03:05:48;18.40;99.90
24638;DHT22;12773;50.162;8.548;2022-08-03T03:08:37;18.30;99.90
24638;DHT22;12773;50.162;8.548;2022-08-03T03:11:25;18.20;99.90
24638;DHT22;12773;50.162;8.548;2022-08-03T03:14:13;18.20;99.90
24638;DHT22;12773;50.162;8.548;2022-08-03T03:17:03;18.30;99.90
24638;DHT22;12773;50.162;8.548;2022-08-03T03:19:52;18.40;99.90
24638;DHT22;12773;50.162;8.548;2022-08-03T03:22:41;18.30;99.90
24638;DHT22;12773;50.162;8.548;2022-08-03T03:25:31;18.30;99.90
24638;DHT22;12773;50.162;8.548;2022-08-03T03:28:19;18.20;99.90
24638;DHT22;12773;50.162;8.548;2022-08-03T03:31:07;18.10;99.90
24638;DHT22;12773;50.162;8.548;2022-08-03T03:33:58;18.10;99.90
24638;DHT22;12773;50.162;8.548;2022-08-03T03:36:46;18.00;99.90
24638;DHT22;12773;50.162;8.548;2022-08-03T03:39:34;17.90;99.90
24638;DHT22;12773;50.162;8.548;2022-08-03T03:42:21;17.90;99.90
24638;DHT22;12773;50.162;8.548;2022-08-03T03:45:10;17.90;99.90
24638;DHT22;12773;50.162;8.548;2022-08-03T03:48:00;17.90;99.90
24638;DHT22;12773;50.162;8.548;2022-08-03T03:50:48;17.80;99.90
24638;DHT22;12773;50.162;8.548;2022-08-03T03:53:36;17.80;99.90
24638;DHT22;12773;50.162;8.548;2022-08-03T03:56:24;17.80;99.90
24638;DHT22;12773;50.162;8.548;2022-08-03T03:59:12;17.70;99.90
24638;DHT22;12773;50.162;8.548;2022-08-03T04:01:59;17.80;99.90
24638;DHT22;12773;50.162;8.548;2022-08-03T04:04:47;17.70;99.90
24638;DHT22;12773;50.162;8.548;2022-08-03T04:07:58;17.60;99.90
24638;DHT22;12773;50.162;8.548;2022-08-03T04:14:05;17.60;99.90
24638;DHT22;12773;50.162;8.548;2022-08-03T04:16:58;17.50;99.90
24638;DHT22;12773;50.162;8.548;2022-08-03T04:19:49;17.60;99.90
24638;DHT22;12773;50.162;8.548;2022-08-03T04:22:38;17.70;99.90
24638;DHT22;12773;50.162;8.548;2022-08-03T04:25:29;17.70;99.90
24638;DHT22;12773;50.162;8.548;2022-08-03T04:28:16;17.70;99.90
24638;DHT22;12773;50.162;8.548;2022-08-03T04:31:06;17.60;99.90
24638;DHT22;12773;50.162;8.548;2022-08-03T04:33:54;17.80;99.90
24638;DHT22;12773;50.162;8.548;2022-08-03T04:36:47;17.80;99.90
24638;DHT22;12773;50.162;8.548;2022-08-03T04:39:36;17.80;99.90
24638;DHT22;12773;50.162;8.548;2022-08-03T04:42:25;17.80;99.90
24638;DHT22;12773;50.162;8.548;2022-08-03T04:45:14;17.80;99.90
24638;DHT22;12773;50.162;8.548;2022-08-03T04:48:02;17.80;99.90
24638;DHT22;12773;50.162;8.548;2022-08-03T04:50:50;17.90;99.90
24638;DHT22;12773;50.162;8.548;2022-08-03T04:53:38;17.90;99.90
24638;DHT22;12773;50.162;8.548;2022-08-03T04:56:26;17.90;99.90
24638;DHT22;12773;50.162;8.548;2022-08-03T04:59:13;17.90;99.90
24638;DHT22;12773;50.162;8.548;2022-08-03T05:02:02;18.00;99.90
24638;DHT22;12773;50.162;8.548;2022-08-03T05:04:50;18.10;99.90
24638;DHT22;12773;50.162;8.548;2022-08-03T05:07:37;18.10;99.90
24638;DHT22;12773;50.162;8.548;2022-08-03T05:10:26;18.30;99.90
24638;DHT22;12773;50.162;8.548;2022-08-03T05:13:13;18.50;99.90
24638;DHT22;12773;50.162;8.548;2022-08-03T05:16:00;18.70;99.90
24638;DHT22;12773;50.162;8.548;2022-08-03T05:18:48;18.90;99.90
24638;DHT22;12773;50.162;8.548;2022-08-03T05:21:35;19.00;99.90
24638;DHT22;12773;50.162;8.548;2022-08-03T05:24:24;19.20;99.90
24638;DHT22;12773;50.162;8.548;2022-08-03T05:27:11;19.40;99.90
24638;DHT22;12773;50.162;8.548;2022-08-03T05:30:00;19.60;99.90
24638;DHT22;12773;50.162;8.548;2022-08-03T05:32:49;19.80;99.90
24638;DHT22;12773;50.162;8.548;2022-08-03T05:35:38;19.90;99.90
24638;DHT22;12773;50.162;8.548;2022-08-03T05:38:27;20.10;99.90
24638;DHT22;12773;50.162;8.548;2022-08-03T05:41:16;20.30;99.90
24638;DHT22;12773;50.162;8.548;2022-08-03T05:44:05;20.50;99.90
24638;DHT22;12773;50.162;8.548;2022-08-03T05:46:52;20.60;99.90
24638;DHT22;12773;50.162;8.548;2022-08-03T05:49:40;20.90;99.90
24638;DHT22;12773;50.162;8.548;2022-08-03T05:52:27;21.00;99.90
24638;DHT22;12773;50.162;8.548;2022-08-03T05:55:15;21.20;99.90
24638;DHT22;12773;50.162;8.548;2022-08-03T05:58:03;21.40;99.90
24638;DHT22;12773;50.162;8.548;2022-08-03T06:00:50;21.60;99.90
24638;DHT22;12773;50.162;8.548;2022-08-03T06:03:38;21.80;99.90
24638;DHT22;12773;50.162;8.548;2022-08-03T06:06:25;21.90;99.90
24638;DHT22;12773;50.162;8.548;2022-08-03T06:09:15;22.10;99.90
24638;DHT22;12773;50.162;8.548;2022-08-03T06:12:03;22.30;99.90
24638;DHT22;12773;50.162;8.548;2022-08-03T06:14:51;22.40;99.90
24638;DHT22;12773;50.162;8.548;2022-08-03T06:17:50;22.60;99.90
24638;DHT22;12773;50.162;8.548;2022-08-03T06:20:34;22.70;99.90
24638;DHT22;12773;50.162;8.548;2022-08-03T06:23:22;22.80;99.90
24638;DHT22;12773;50.162;8.548;2022-08-03T06:26:12;23.00;99.90
24638;DHT22;12773;50.162;8.548;2022-08-03T06:28:59;23.10;99.90
24638;DHT22;12773;50.162;8.548;2022-08-03T06:31:48;23.20;99.90
24638;DHT22;12773;50.162;8.548;2022-08-03T06:34:35;23.30;99.90
24638;DHT22;12773;50.162;8.548;2022-08-03T06:37:23;23.40;99.90
24638;DHT22;12773;50.162;8.548;2022-08-03T06:40:11;23.60;99.90
24638;DHT22;12773;50.162;8.548;2022-08-03T06:43:02;23.70;99.90
24638;DHT22;12773;50.162;8.548;2022-08-03T06:45:49;23.90;99.90
24638;DHT22;12773;50.162;8.548;2022-08-03T06:48:36;24.00;99.90
24638;DHT22;12773;50.162;8.548;2022-08-03T06:51:23;24.10;99.90
24638;DHT22;12773;50.162;8.548;2022-08-03T06:54:12;24.20;99.90
24638;DHT22;12773;50.162;8.548;2022-08-03T06:56:59;24.30;99.90
24638;DHT22;12773;50.162;8.548;2022-08-03T06:59:46;24.40;99.90
24638;DHT22;12773;50.162;8.548;2022-08-03T07:02:35;24.60;99.90
24638;DHT22;12773;50.162;8.548;2022-08-03T07:05:22;24.70;99.90
24638;DHT22;12773;50.162;8.548;2022-08-03T07:08:10;24.80;99.90
24638;DHT22;12773;50.162;8.548;2022-08-03T07:10:57;24.90;99.90
24638;DHT22;12773;50.162;8.548;2022-08-03T07:13:44;25.10;99.70
24638;DHT22;12773;50.162;8.548;2022-08-03T07:16:32;25.20;99.10
24638;DHT22;12773;50.162;8.548;2022-08-03T07:19:19;25.30;98.80
24638;DHT22;12773;50.162;8.548;2022-08-03T07:22:06;25.40;98.80
24638;DHT22;12773;50.162;8.548;2022-08-03T07:24:54;25.40;98.60
24638;DHT22;12773;50.162;8.548;2022-08-03T07:27:43;25.50;98.50
24638;DHT22;12773;50.162;8.548;2022-08-03T07:30:32;25.70;97.90
24638;DHT22;12773;50.162;8.548;2022-08-03T07:33:21;25.80;97.90
24638;DHT22;12773;50.162;8.548;2022-08-03T07:36:09;25.90;97.10
24638;DHT22;12773;50.162;8.548;2022-08-03T07:38:57;26.00;97.60
24638;DHT22;12773;50.162;8.548;2022-08-03T07:41:45;26.20;97.20
24638;DHT22;12773;50.162;8.548;2022-08-03T07:44:33;26.20;97.00
24638;DHT22;12773;50.162;8.548;2022-08-03T07:47:22;26.40;96.40
24638;DHT22;12773;50.162;8.548;2022-08-03T07:50:10;26.50;96.00
24638;DHT22;12773;50.162;8.548;2022-08-03T07:52:58;26.60;96.10
24638;DHT22;12773;50.162;8.548;2022-08-03T07:55:45;26.80;95.70
24638;DHT22;12773;50.162;8.548;2022-08-03T07:58:34;26.90;94.60
24638;DHT22;12773;50.162;8.548;2022-08-03T08:01:22;27.00;94.20
24638;DHT22;12773;50.162;8.548;2022-08-03T08:04:09;27.10;94.30
24638;DHT22;12773;50.162;8.548;2022-08-03T08:06:57;27.20;94.50
24638;DHT22;12773;50.162;8.548;2022-08-03T08:09:44;27.40;93.90
24638;DHT22;12773;50.162;8.548;2022-08-03T08:12:32;27.50;94.20
24638;DHT22;12773;50.162;8.548;2022-08-03T08:15:19;27.40;93.70
24638;DHT22;12773;50.162;8.548;2022-08-03T08:18:07;27.60;93.50
24638;DHT22;12773;50.162;8.548;2022-08-03T08:20:54;27.40;93.10
24638;DHT22;12773;50.162;8.548;2022-08-03T08:23:42;27.50;92.90
24638;DHT22;12773;50.162;8.548;2022-08-03T08:26:31;27.70;92.80
24638;DHT22;12773;50.162;8.548;2022-08-03T08:29:18;27.80;91.70
24638;DHT22;12773;50.162;8.548;2022-08-03T08:32:07;28.00;90.90
24638;DHT22;12773;50.162;8.548;2022-08-03T08:34:56;27.90;91.30
24638;DHT22;12773;50.162;8.548;2022-08-03T08:37:44;27.80;90.90
24638;DHT22;12773;50.162;8.548;2022-08-03T08:40:33;27.90;90.40
24638;DHT22;12773;50.162;8.548;2022-08-03T08:43:20;28.10;90.10
24638;DHT22;12773;50.162;8.548;2022-08-03T08:46:10;28.30;90.10
24638;DHT22;12773;50.162;8.548;2022-08-03T08:49:00;28.50;88.80
24638;DHT22;12773;50.162;8.548;2022-08-03T08:51:50;28.60;88.70
24638;DHT22;12773;50.162;8.548;2022-08-03T08:54:41;28.60;86.40
24638;DHT22;12773;50.162;8.548;2022-08-03T08:57:33;28.50;87.50
24638;DHT22;12773;50.162;8.548;2022-08-03T09:00:22;28.60;86.40
24638;DHT22;12773;50.162;8.548;2022-08-03T09:03:14;28.80;85.40
24638;DHT22;12773;50.162;8.548;2022-08-03T09:06:02;29.00;85.20
24638;DHT22;12773;50.162;8.548;2022-08-03T09:08:50;29.20;84.00
24638;DHT22;12773;50.162;8.548;2022-08-03T09:11:42;29.30;81.30
24638;DHT22;12773;50.162;8.548;2022-08-03T09:14:32;29.30;81.20
24638;DHT22;12773;50.162;8.548;2022-08-03T09:17:21;29.50;82.30
24638;DHT22;12773;50.162;8.548;2022-08-03T09:20:08;29.40;77.80
24638;DHT22;12773;50.162;8.548;2022-08-03T09:25:46;29.60;75.20
24638;DHT22;12773;50.162;8.548;2022-08-03T09:28:35;29.70;74.40
24638;DHT22;12773;50.162;8.548;2022-08-03T09:31:35;29.60;74.10
24638;DHT22;12773;50.162;8.548;2022-08-03T09:34:24;29.70;74.80
24638;DHT22;12773;50.162;8.548;2022-08-03T09:37:14;29.90;74.20
24638;DHT22;12773;50.162;8.548;2022-08-03T09:40:04;30.20;71.00
24638;DHT22;12773;50.162;8.548;2022-08-03T09:42:57;30.50;71.70
24638;DHT22;12773;50.162;8.548;2022-08-03T09:45:45;30.60;68.90
24638;DHT22;12773;50.162;8.548;2022-08-03T09:48:32;30.60;69.60
24638;DHT22;12773;50.162;8.548;2022-08-03T09:51:23;30.70;69.10
24638;DHT22;12773;50.162;8.548;2022-08-03T09:54:12;31.00;69.40
24638;DHT22;12773;50.162;8.548;2022-08-03T09:57:01;31.20;67.60
24638;DHT22;12773;50.162;8.548;2022-08-03T09:59:50;31.50;67.00
24638;DHT22;12773;50.162;8.548;2022-08-03T10:02:41;31.80;66.10
24638;DHT22;12773;50.162;8.548;2022-08-03T10:05:32;31.90;65.20
24638;DHT22;12773;50.162;8.548;2022-08-03T10:08:20;32.30;64.90
24638;DHT22;12773;50.162;8.548;2022-08-03T10:11:07;32.40;62.20
24638;DHT22;12773;50.162;8.548;2022-08-03T10:13:55;32.30;61.70
24638;DHT22;12773;50.162;8.548;2022-08-03T10:16:45;32.70;60.80
24638;DHT22;12773;50.162;8.548;2022-08-03T10:19:33;32.80;60.50
24638;DHT22;12773;50.162;8.548;2022-08-03T10:22:22;32.90;60.30
24638;DHT22;12773;50.162;8.548;2022-08-03T10:25:11;33.20;59.80
24638;DHT22;12773;50.162;8.548;2022-08-03T10:28:01;33.00;57.40
24638;DHT22;12773;50.162;8.548;2022-08-03T10:30:52;32.90;57.30
24638;DHT22;12773;50.162;8.548;2022-08-03T10:33:46;32.90;57.00
24638;DHT22;12773;50.162;8.548;2022-08-03T10:36:37;33.10;57.30
24638;DHT22;12773;50.162;8.548;2022-08-03T10:39:27;33.10;57.10
24638;DHT22;12773;50.162;8.548;2022-08-03T10:42:15;33.10;55.80
24638;DHT22;12773;50.162;8.548;2022-08-03T10:45:08;33.10;55.00
24638;DHT22;12773;50.162;8.548;2022-08-03T10:47:57;33.30;54.10
24638;DHT22;12773;50.162;8.548;2022-08-03T10:50:47;33.10;55.00
24638;DHT22;12773;50.162;8.548;2022-08-03T10:53:41;33.00;55.30
24638;DHT22;12773;50.162;8.548;2022-08-03T11:06:16;33.60;54.40
24638;DHT22;12773;50.162;8.548;2022-08-03T11:12:03;33.40;52.80
24638;DHT22;12773;50.162;8.548;2022-08-03T11:14:53;33.40;52.80
24638;DHT22;12773;50.162;8.548;2022-08-03T11:17:45;33.40;52.70
24638;DHT22;12773;50.162;8.548;2022-08-03T11:20:48;33.50;51.90
24638;DHT22;12773;50.162;8.548;2022-08-03T11:23:46;33.70;52.60
24638;DHT22;12773;50.162;8.548;2022-08-03T11:26:35;33.50;52.40
24638;DHT22;12773;50.162;8.548;2022-08-03T11:29:28;33.40;53.10
24638;DHT22;12773;50.162;8.548;2022-08-03T11:35:32;33.80;53.10
24638;DHT22;12773;50.162;8.548;2022-08-03T11:38:21;34.10;52.50
24638;DHT22;12773;50.162;8.548;2022-08-03T11:41:31;34.20;51.50
24638;DHT22;12773;50.162;8.548;2022-08-03T11:44:00;34.30;51.90
24638;DHT22;12773;50.162;8.548;2022-08-03T11:46:48;34.50;51.40
24638;DHT22;12773;50.162;8.548;2022-08-03T11:49:37;34.60;51.50
24638;DHT22;12773;50.162;8.548;2022-08-03T11:52:26;34.60;51.40
24638;DHT22;12773;50.162;8.548;2022-08-03T11:55:17;34.90;51.00
24638;DHT22;12773;50.162;8.548;2022-08-03T11:58:06;35.10;50.70
24638;DHT22;12773;50.162;8.548;2022-08-03T12:01:05;34.90;49.30
24638;DHT22;12773;50.162;8.548;2022-08-03T12:03:53;34.90;49.80
24638;DHT22;12773;50.162;8.548;2022-08-03T12:06:41;34.90;48.90
24638;DHT22;12773;50.162;8.548;2022-08-03T12:09:37;35.00;48.80
24638;DHT22;12773;50.162;8.548;2022-08-03T12:12:26;35.30;50.10
24638;DHT22;12773;50.162;8.548;2022-08-03T12:15:14;35.50;49.60
24638;DHT22;12773;50.162;8.548;2022-08-03T12:18:02;35.80;49.10
24638;DHT22;12773;50.162;8.548;2022-08-03T12:20:52;35.60;48.50
24638;DHT22;12773;50.162;8.548;2022-08-03T12:23:41;35.50;47.90
24638;DHT22;12773;50.162;8.548;2022-08-03T12:26:30;35.50;48.30
24638;DHT22;12773;50.162;8.548;2022-08-03T12:29:19;35.70;49.10
24638;DHT22;12773;50.162;8.548;2022-08-03T12:32:07;35.70;47.50
24638;DHT22;12773;50.162;8.548;2022-08-03T12:34:56;35.50;48.00
24638;DHT22;12773;50.162;8.548;2022-08-03T12:37:47;35.30;47.70
24638;DHT22;12773;50.162;8.548;2022-08-03T12:40:35;35.30;47.90
24638;DHT22;12773;50.162;8.548;2022-08-03T12:43:23;35.40;47.90
24638;DHT22;12773;50.162;8.548;2022-08-03T12:46:15;35.20;47.40
24638;DHT22;12773;50.162;8.548;2022-08-03T12:49:13;35.20;46.80
24638;DHT22;12773;50.162;8.548;2022-08-03T12:52:00;35.40;48.40
24638;DHT22;12773;50.162;8.548;2022-08-03T12:54:57;35.90;47.30
24638;DHT22;12773;50.162;8.548;2022-08-03T12:57:45;36.10;46.90
24638;DHT22;12773;50.162;8.548;2022-08-03T13:00:33;36.20;46.30
24638;DHT22;12773;50.162;8.548;2022-08-03T13:03:22;36.30;46.10
24638;DHT22;12773;50.162;8.548;2022-08-03T13:06:15;36.10;46.60
24638;DHT22;12773;50.162;8.548;2022-08-03T13:09:05;36.10;46.10
24638;DHT22;12773;50.162;8.548;2022-08-03T13:14:59;36.50;46.50
24638;DHT22;12773;50.162;8.548;2022-08-03T13:17:46;36.60;45.40
24638;DHT22;12773;50.162;8.548;2022-08-03T13:20:35;36.80;45.30
24638;DHT22;12773;50.162;8.548;2022-08-03T13:23:22;37.10;45.70
24638;DHT22;12773;50.162;8.548;2022-08-03T13:26:10;37.00;45.60
24638;DHT22;12773;50.162;8.548;2022-08-03T13:28:57;37.20;46.40
24638;DHT22;12773;50.162;8.548;2022-08-03T13:31:45;37.00;44.40
24638;DHT22;12773;50.162;8.548;2022-08-03T13:34:34;37.10;45.20
24638;DHT22;12773;50.162;8.548;2022-08-03T13:37:22;37.30;45.20
24638;DHT22;12773;50.162;8.548;2022-08-03T13:40:09;37.30;44.60
24638;DHT22;12773;50.162;8.548;2022-08-03T13:42:58;37.30;43.10
24638;DHT22;12773;50.162;8.548;2022-08-03T13:45:46;36.80;45.20
24638;DHT22;12773;50.162;8.548;2022-08-03T13:48:35;36.80;43.50
24638;DHT22;12773;50.162;8.548;2022-08-03T13:51:22;36.70;43.80
24638;DHT22;12773;50.162;8.548;2022-08-03T13:54:10;36.50;44.20
24638;DHT22;12773;50.162;8.548;2022-08-03T13:56:59;36.70;44.30
24638;DHT22;12773;50.162;8.548;2022-08-03T13:59:48;36.60;43.50
24638;DHT22;12773;50.162;8.548;2022-08-03T14:02:36;36.40;43.30
24638;DHT22;12773;50.162;8.548;2022-08-03T14:05:23;36.50;43.80
24638;DHT22;12773;50.162;8.548;2022-08-03T14:08:11;36.80;43.00
24638;DHT22;12773;50.162;8.548;2022-08-03T14:10:58;37.10;43.20
24638;DHT22;12773;50.162;8.548;2022-08-03T14:13:46;37.10;43.60
24638;DHT22;12773;50.162;8.548;2022-08-03T14:16:35;36.80;43.00
24638;DHT22;12773;50.162;8.548;2022-08-03T14:19:22;37.20;43.40
24638;DHT22;12773;50.162;8.548;2022-08-03T14:22:10;37.50;43.30
24638;DHT22;12773;50.162;8.548;2022-08-03T14:24:58;37.20;41.80
24638;DHT22;12773;50.162;8.548;2022-08-03T14:27:46;37.10;41.70
24638;DHT22;12773;50.162;8.548;2022-08-03T14:30:34;37.00;41.70
24638;DHT22;12773;50.162;8.548;2022-08-03T14:33:22;36.70;41.30
24638;DHT22;12773;50.162;8.548;2022-08-03T14:36:10;36.70;41.60
24638;DHT22;12773;50.162;8.548;2022-08-03T14:38:57;36.40;41.40
24638;DHT22;12773;50.162;8.548;2022-08-03T14:41:46;36.30;41.90
24638;DHT22;12773;50.162;8.548;2022-08-03T14:44:34;36.80;42.00
24638;DHT22;12773;50.162;8.548;2022-08-03T14:47:21;36.60;40.50
24638;DHT22;12773;50.162;8.548;2022-08-03T14:50:08;36.60;40.50
24638;DHT22;12773;50.162;8.548;2022-08-03T14:52:57;36.80;41.60
24638;DHT22;12773;50.162;8.548;2022-08-03T14:55:47;36.70;41.60
24638;DHT22;12773;50.162;8.548;2022-08-03T14:58:36;36.70;42.40
24638;DHT22;12773;50.162;8.548;2022-08-03T15:01:24;36.90;43.00
24638;DHT22;12773;50.162;8.548;2022-08-03T15:04:13;37.00;42.70
24638;DHT22;12773;50.162;8.548;2022-08-03T15:07:00;37.30;42.50
24638;DHT22;12773;50.162;8.548;2022-08-03T15:09:47;37.30;42.50
24638;DHT22;12773;50.162;8.548;2022-08-03T15:12:35;37.40;41.30
24638;DHT22;12773;50.162;8.548;2022-08-03T15:15:22;37.40;41.80
24638;DHT22;12773;50.162;8.548;2022-08-03T15:18:10;37.30;41.20
24638;DHT22;12773;50.162;8.548;2022-08-03T15:20:57;37.30;41.00
24638;DHT22;12773;50.162;8.548;2022-08-03T15:23:45;37.30;41.40
24638;DHT22;12773;50.162;8.548;2022-08-03T15:26:32;37.40;40.70
24638;DHT22;12773;50.162;8.548;2022-08-03T15:29:21;37.40;41.10
24638;DHT22;12773;50.162;8.548;2022-08-03T15:32:10;37.30;41.90
24638;DHT22;12773;50.162;8.548;2022-08-03T15:34:58;37.40;41.00
24638;DHT22;12773;50.162;8.548;2022-08-03T15:37:46;37.60;40.30
24638;DHT22;12773;50.162;8.548;2022-08-03T15:40:33;37.90;40.90
24638;DHT22;12773;50.162;8.548;2022-08-03T15:43:22;37.70;41.60
24638;DHT22;12773;50.162;8.548;2022-08-03T15:46:10;37.70;41.00
24638;DHT22;12773;50.162;8.548;2022-08-03T15:49:00;37.70;41.20
24638;DHT22;12773;50.162;8.548;2022-08-03T15:51:47;37.40;40.40
24638;DHT22;12773;50.162;8.548;2022-08-03T15:54:35;37.50;41.40
24638;DHT22;12773;50.162;8.548;2022-08-03T15:57:23;37.70;40.50
24638;DHT22;12773;50.162;8.548;2022-08-03T16:00:14;38.00;39.80
24638;DHT22;12773;50.162;8.548;2022-08-03T16:03:04;38.10;39.40
24638;DHT22;12773;50.162;8.548;2022-08-03T16:05:51;38.20;40.00
24638;DHT22;12773;50.162;8.548;2022-08-03T16:08:38;38.40;39.60
24638;DHT22;12773;50.162;8.548;2022-08-03T16:11:26;38.40;39.20
24638;DHT22;12773;50.162;8.548;2022-08-03T16:14:14;38.20;39.80
24638;DHT22;12773;50.162;8.548;2022-08-03T16:17:03;38.10;39.70
24638;DHT22;12773;50.162;8.548;2022-08-03T16:19:50;37.90;39.80
24638;DHT22;12773;50.162;8.548;2022-08-03T16:22:44;38.00;39.90
24638;DHT22;12773;50.162;8.548;2022-08-03T16:25:32;38.40;40.40
24638;DHT22;12773;50.162;8.548;2022-08-03T16:28:20;38.50;40.20
24638;DHT22;12773;50.162;8.548;2022-08-03T16:31:07;38.80;40.10
24638;DHT22;12773;50.162;8.548;2022-08-03T16:33:55;38.70;39.60
24638;DHT22;12773;50.162;8.548;2022-08-03T16:36:43;38.70;40.00
24638;DHT22;12773;50.162;8.548;2022-08-03T16:39:31;38.40;39.50
24638;DHT22;12773;50.162;8.548;2022-08-03T16:42:18;38.10;39.90
24638;DHT22;12773;50.162;8.548;2022-08-03T16:45:06;37.60;40.00
24638;DHT22;12773;50.162;8.548;2022-08-03T16:47:54;37.40;40.30
24638;DHT22;12773;50.162;8.548;2022-08-03T16:50:43;37.30;40.40
24638;DHT22;12773;50.162;8.548;2022-08-03T16:53:31;37.40;40.50
24638;DHT22;12773;50.162;8.548;2022-08-03T16:56:19;37.70;40.80
24638;DHT22;12773;50.162;8.548;2022-08-03T16:59:08;37.60;40.00
24638;DHT22;12773;50.162;8.548;2022-08-03T17:01:56;37.50;40.20
24638;DHT22;12773;50.162;8.548;2022-08-03T17:04:43;37.10;40.50
24638;DHT22;12773;50.162;8.548;2022-08-03T17:07:31;36.50;40.90
24638;DHT22;12773;50.162;8.548;2022-08-03T17:10:18;36.20;40.90
24638;DHT22;12773;50.162;8.548;2022-08-03T17:13:07;36.10;40.90
24638;DHT22;12773;50.162;8.548;2022-08-03T17:15:55;36.00;41.30
24638;DHT22;12773;50.162;8.548;2022-08-03T17:18:54;35.80;41.80
24638;DHT22;12773;50.162;8.548;2022-08-03T17:21:46;35.70;42.10
24638;DHT22;12773;50.162;8.548;2022-08-03T17:24:43;35.50;42.10
24638;DHT22;12773;50.162;8.548;2022-08-03T17:27:28;35.40;41.70
24638;DHT22;12773;50.162;8.548;2022-08-03T17:30:17;35.40;42.00
24638;DHT22;12773;50.162;8.548;2022-08-03T17:33:05;35.40;42.80
24638;DHT22;12773;50.162;8.548;2022-08-03T17:35:54;35.40;42.20
24638;DHT22;12773;50.162;8.548;2022-08-03T17:38:44;35.30;43.00
24638;DHT22;12773;50.162;8.548;2022-08-03T17:41:32;35.10;43.20
24638;DHT22;12773;50.162;8.548;2022-08-03T17:44:19;35.00;43.20
24638;DHT22;12773;50.162;8.548;2022-08-03T17:47:08;35.00;43.20
24638;DHT22;12773;50.162;8.548;2022-08-03T17:49:56;35.00;43.40
24638;DHT22;12773;50.162;8.548;2022-08-03T17:52:45;35.00;43.40
24638;DHT22;12773;50.162;8.548;2022-08-03T17:55:36;34.80;43.50
24638;DHT22;12773;50.162;8.548;2022-08-03T18:01:43;34.70;43.80
24638;DHT22;12773;50.162;8.548;2022-08-03T18:04:48;34.60;43.50
24638;DHT22;12773;50.162;8.548;2022-08-03T18:07:44;34.60;43.90
24638;DHT22;12773;50.162;8.548;2022-08-03T18:10:33;34.60;43.70
24638;DHT22;12773;50.162;8.548;2022-08-03T18:13:23;34.70;44.20
24638;DHT22;12773;50.162;8.548;2022-08-03T18:16:16;34.70;43.90
24638;DHT22;12773;50.162;8.548;2022-08-03T18:19:04;34.70;45.40
24638;DHT22;12773;50.162;8.548;2022-08-03T18:21:53;34.60;47.90
24638;DHT22;12773;50.162;8.548;2022-08-03T18:24:43;34.60;48.30
24638;DHT22;12773;50.162;8.548;2022-08-03T18:27:34;34.30;49.60
24638;DHT22;12773;50.162;8.548;2022-08-03T18:30:23;34.10;48.30
24638;DHT22;12773;50.162;8.548;2022-08-03T18:33:13;33.90;48.50
24638;DHT22;12773;50.162;8.548;2022-08-03T18:36:03;33.70;50.30
24638;DHT22;12773;50.162;8.548;2022-08-03T18:38:51;33.30;51.30